createdAt,value
2019-02-10T00:01:02.561Z,48.20
2019-02-10T00:03:31.253Z,48.30
2019-02-10T00:05:59.975Z,48.30
2019-02-10T00:08:28.653Z,48.50
2019-02-10T00:10:57.339Z,48.50
2019-02-10T00:13:28.362Z,48.50
2019-02-10T00:15:58.962Z,48.60
2019-02-10T00:18:27.712Z,48.60
2019-02-10T00:20:56.639Z,48.60
2019-02-10T00:23:25.401Z,48.30
2019-02-10T00:25:54.097Z,48.50
2019-02-10T00:28:22.851Z,48.40
2019-02-10T00:30:51.565Z,48.50
2019-02-10T00:33:20.248Z,48.50
2019-02-10T00:35:49.039Z,49.00
2019-02-10T00:38:17.773Z,48.40
2019-02-10T00:40:46.565Z,48.40
2019-02-10T00:43:15.304Z,48.50
2019-02-10T00:45:44.046Z,48.40
2019-02-10T00:48:12.749Z,48.50
2019-02-10T00:50:41.431Z,48.30
2019-02-10T00:53:10.131Z,48.40
2019-02-10T00:55:38.844Z,48.60
2019-02-10T00:58:07.527Z,48.90
2019-02-10T01:00:36.210Z,48.70
2019-02-10T01:03:05.525Z,48.60
2019-02-10T01:05:34.201Z,48.60
2019-02-10T01:08:02.878Z,48.60
2019-02-10T01:10:31.563Z,48.50
2019-02-10T01:13:02.616Z,48.60
2019-02-10T01:15:31.697Z,48.60
2019-02-10T01:18:01.936Z,48.40
2019-02-10T01:20:30.665Z,48.70
2019-02-10T01:22:59.602Z,48.70
2019-02-10T01:25:28.322Z,48.70
2019-02-10T01:27:58.419Z,48.80
2019-02-10T01:30:27.611Z,48.50
2019-02-10T01:32:57.872Z,48.80
2019-02-10T01:35:30.109Z,48.80
2019-02-10T01:37:58.865Z,48.60
2019-02-10T01:40:27.547Z,48.80
2019-02-10T01:42:56.254Z,48.60
2019-02-10T01:45:24.950Z,48.60
2019-02-10T01:47:53.633Z,48.60
2019-02-10T01:50:22.351Z,48.80
2019-02-10T01:52:51.015Z,48.70
2019-02-10T01:55:19.925Z,48.60
2019-02-10T01:57:48.620Z,48.60
2019-02-10T02:00:17.440Z,48.90
2019-02-10T02:02:46.171Z,48.90
2019-02-10T02:05:14.878Z,49.20
2019-02-10T02:07:43.568Z,49.50
2019-02-10T02:10:13.263Z,49.90
2019-02-10T02:12:42.033Z,49.80
2019-02-10T02:15:16.803Z,50.00
2019-02-10T02:17:45.772Z,50.50
2019-02-10T02:20:14.488Z,50.50
2019-02-10T02:22:43.153Z,50.80
2019-02-10T02:25:12.660Z,50.80
2019-02-10T02:27:41.309Z,50.70
2019-02-10T02:30:16.839Z,51.00
2019-02-10T02:32:45.512Z,50.80
2019-02-10T02:35:14.223Z,51.00
2019-02-10T02:37:42.903Z,51.10
2019-02-10T02:40:12.102Z,50.90
2019-02-10T02:42:40.784Z,50.50
2019-02-10T02:45:11.405Z,51.00
2019-02-10T02:47:40.348Z,51.00
2019-02-10T02:50:11.483Z,51.00
2019-02-10T02:52:40.162Z,50.90
2019-02-10T02:55:09.961Z,51.10
2019-02-10T02:57:38.696Z,51.20
2019-02-10T03:00:09.282Z,51.00
2019-02-10T03:02:37.950Z,51.20
2019-02-10T03:05:11.050Z,51.00
2019-02-10T03:07:39.880Z,51.30
2019-02-10T03:10:09.474Z,51.70
2019-02-10T03:12:38.142Z,51.70
2019-02-10T03:15:08.537Z,51.70
2019-02-10T03:17:37.204Z,51.70
2019-02-10T03:20:07.923Z,51.90
2019-02-10T03:22:36.618Z,52.20
2019-02-10T03:25:06.618Z,52.60
2019-02-10T03:27:35.285Z,52.50
2019-02-10T03:30:05.932Z,52.30
2019-02-10T03:32:34.629Z,52.70
2019-02-10T03:35:03.798Z,52.80
2019-02-10T03:37:32.488Z,52.80
2019-02-10T03:40:01.166Z,52.80
2019-02-10T03:42:29.943Z,52.80
2019-02-10T03:44:58.625Z,52.80
2019-02-10T03:47:27.315Z,52.80
2019-02-10T03:49:56.103Z,52.90
2019-02-10T03:52:24.863Z,53.20
2019-02-10T03:54:53.538Z,53.80
2019-02-10T03:57:22.252Z,53.20
2019-02-10T03:59:51.027Z,53.50
2019-02-10T04:02:19.902Z,53.50
2019-02-10T04:04:48.576Z,53.40
2019-02-10T04:07:17.363Z,53.70
2019-02-10T04:09:46.034Z,53.90
2019-02-10T04:12:14.742Z,54.00
2019-02-10T04:14:43.403Z,53.90
2019-02-10T04:17:12.103Z,54.80
2019-02-10T04:19:40.769Z,54.30
2019-02-10T04:22:09.478Z,54.20
2019-02-10T04:24:38.178Z,54.20
2019-02-10T04:27:06.942Z,54.50
2019-02-10T04:29:35.616Z,54.30
2019-02-10T04:32:04.304Z,54.30
2019-02-10T04:34:32.960Z,54.50
2019-02-10T04:37:01.642Z,54.50
2019-02-10T04:39:30.320Z,54.90
2019-02-10T04:41:59.083Z,54.70
2019-02-10T04:44:27.767Z,54.90
2019-02-10T04:46:56.471Z,55.00
2019-02-10T04:49:25.155Z,55.10
2019-02-10T04:51:53.843Z,55.30
2019-02-10T04:54:22.511Z,55.40
2019-02-10T04:56:51.207Z,55.20
2019-02-10T04:59:19.880Z,55.30
2019-02-10T05:01:48.563Z,55.30
2019-02-10T05:04:17.242Z,55.40
2019-02-10T05:06:45.987Z,55.40
2019-02-10T05:09:14.688Z,55.90
2019-02-10T05:11:43.404Z,56.30
2019-02-10T05:14:12.069Z,56.20
2019-02-10T05:16:40.774Z,56.20
2019-02-10T05:19:09.444Z,56.30
2019-02-10T05:21:38.216Z,56.30
2019-02-10T05:24:06.889Z,56.10
2019-02-10T05:26:35.578Z,56.30
2019-02-10T05:29:04.844Z,56.30
2019-02-10T05:31:33.545Z,56.20
2019-02-10T05:34:02.235Z,56.40
2019-02-10T05:36:30.919Z,56.30
2019-02-10T05:38:59.608Z,56.10
2019-02-10T05:41:28.298Z,56.30
2019-02-10T05:43:57.083Z,56.20
2019-02-10T05:46:25.923Z,56.30
2019-02-10T05:48:54.608Z,56.10
2019-02-10T05:51:23.276Z,56.30
2019-02-10T05:53:51.976Z,56.30
2019-02-10T05:56:20.652Z,56.30
2019-02-10T05:58:49.343Z,56.20
2019-02-10T06:01:54.641Z,56.40
2019-02-10T06:04:23.383Z,56.20
2019-02-10T06:06:52.976Z,56.10
2019-02-10T06:09:21.744Z,56.40
2019-02-10T06:11:50.423Z,56.20
2019-02-10T06:14:19.103Z,56.40
2019-02-10T06:16:47.787Z,56.30
2019-02-10T06:19:16.441Z,56.70
2019-02-10T06:21:48.052Z,56.50
2019-02-10T06:24:16.761Z,56.60
2019-02-10T06:26:45.470Z,57.40
2019-02-10T06:29:14.168Z,56.80
2019-02-10T06:31:42.839Z,56.90
2019-02-10T06:34:11.520Z,57.00
2019-02-10T06:36:40.197Z,57.00
2019-02-10T06:39:08.921Z,57.30
2019-02-10T06:41:37.611Z,57.80
2019-02-10T06:44:06.314Z,57.30
2019-02-10T06:46:35.004Z,57.70
2019-02-10T06:49:03.704Z,57.30
2019-02-10T06:51:32.363Z,57.40
2019-02-10T06:54:01.067Z,57.40
2019-02-10T06:56:29.740Z,57.70
2019-02-10T06:58:58.431Z,57.70
2019-02-10T07:01:46.829Z,57.80
2019-02-10T07:04:16.952Z,57.70
2019-02-10T07:06:45.676Z,57.80
2019-02-10T07:09:14.391Z,57.90
2019-02-10T07:11:43.101Z,58.20
2019-02-10T07:14:20.483Z,58.10
2019-02-10T07:16:55.099Z,58.10
2019-02-10T07:19:43.394Z,58.30
2019-02-10T07:22:31.915Z,58.20
2019-02-10T07:25:15.693Z,58.20
2019-02-10T07:27:46.346Z,58.30
2019-02-10T07:30:17.975Z,58.60
2019-02-10T07:33:01.254Z,58.60
2019-02-10T07:35:56.911Z,58.50
2019-02-10T07:38:46.640Z,58.50
2019-02-10T07:41:36.260Z,58.70
2019-02-10T07:44:35.006Z,59.30
2019-02-10T07:47:18.639Z,58.70
2019-02-10T07:49:50.289Z,59.30
2019-02-10T07:52:24.845Z,59.40
2019-02-10T07:55:25.435Z,60.00
2019-02-10T07:58:09.127Z,59.60
2019-02-10T08:00:55.428Z,59.20
2019-02-10T08:03:43.733Z,59.40
2019-02-10T08:06:30.599Z,59.40
2019-02-10T08:09:08.270Z,59.30
2019-02-10T08:11:48.532Z,59.40
2019-02-10T08:14:25.992Z,59.40
2019-02-10T08:17:06.456Z,59.60
2019-02-10T08:20:08.584Z,59.50
2019-02-10T08:22:43.140Z,59.60
2019-02-10T08:25:50.168Z,59.70
2019-02-10T08:28:41.551Z,59.70
2019-02-10T08:31:19.222Z,59.50
2019-02-10T08:34:06.114Z,59.60
2019-02-10T08:36:55.920Z,60.00
2019-02-10T08:39:42.426Z,60.00
2019-02-10T08:42:33.901Z,60.00
2019-02-10T08:45:17.506Z,59.80
2019-02-10T08:47:49.247Z,60.10
2019-02-10T08:50:20.858Z,60.20
2019-02-10T08:53:01.404Z,60.00
2019-02-10T08:55:30.104Z,60.20
2019-02-10T08:57:59.642Z,60.00
2019-02-10T09:00:28.448Z,59.90
2019-02-10T09:02:57.131Z,60.00
2019-02-10T09:05:25.807Z,59.80
2019-02-10T09:07:54.524Z,59.70
2019-02-10T09:10:23.201Z,59.50
2019-02-10T09:12:52.056Z,59.50
2019-02-10T09:15:23.199Z,59.50
2019-02-10T09:17:51.892Z,59.50
2019-02-10T09:20:20.576Z,59.50
2019-02-10T09:22:49.263Z,59.50
2019-02-10T09:25:17.952Z,59.30
2019-02-10T09:27:46.681Z,59.20
2019-02-10T09:30:15.375Z,59.50
2019-02-10T09:32:44.386Z,59.80
2019-02-10T09:35:13.079Z,59.70
2019-02-10T09:37:41.783Z,59.90
2019-02-10T09:40:12.185Z,59.80
2019-02-10T09:42:40.909Z,59.80
2019-02-10T09:45:11.882Z,59.70
2019-02-10T09:47:40.584Z,59.70
2019-02-10T09:50:15.871Z,59.80
2019-02-10T09:52:44.583Z,59.70
2019-02-10T09:55:13.248Z,60.00
2019-02-10T09:57:41.974Z,60.00
2019-02-10T10:00:13.240Z,60.80
2019-02-10T10:02:41.932Z,60.30
2019-02-10T10:05:12.819Z,60.10
2019-02-10T10:07:41.544Z,60.90
2019-02-10T10:10:12.692Z,60.20
2019-02-10T10:12:41.391Z,60.50
2019-02-10T10:15:15.457Z,60.20
2019-02-10T10:17:44.164Z,60.60
2019-02-10T10:20:15.902Z,60.40
2019-02-10T10:22:44.608Z,60.60
2019-02-10T10:25:13.291Z,60.70
2019-02-10T10:27:42.009Z,60.60
2019-02-10T10:30:16.226Z,60.50
2019-02-10T10:32:44.928Z,60.50
2019-02-10T10:35:13.576Z,60.30
2019-02-10T10:37:42.380Z,60.20
2019-02-10T10:40:11.859Z,60.40
2019-02-10T10:42:40.571Z,60.70
2019-02-10T10:45:14.086Z,60.70
2019-02-10T10:47:42.911Z,61.00
2019-02-10T10:50:14.048Z,61.00
2019-02-10T10:52:42.770Z,60.70
2019-02-10T10:55:12.692Z,60.80
2019-02-10T10:57:41.402Z,60.80
2019-02-10T11:00:16.516Z,60.70
2019-02-10T11:02:45.248Z,60.60
2019-02-10T11:05:14.938Z,60.90
2019-02-10T11:07:43.808Z,61.00
2019-02-10T11:10:13.473Z,60.70
2019-02-10T11:12:42.206Z,61.80
2019-02-10T11:15:15.780Z,60.80
2019-02-10T11:17:44.540Z,60.80
2019-02-10T11:20:13.494Z,60.90
2019-02-10T11:22:42.210Z,61.30
2019-02-10T11:25:11.897Z,61.10
2019-02-10T11:27:40.556Z,61.20
2019-02-10T11:30:15.897Z,61.00
2019-02-10T11:32:44.578Z,60.90
2019-02-10T11:35:13.286Z,60.70
2019-02-10T11:37:41.968Z,60.70
2019-02-10T11:40:11.944Z,60.70
2019-02-10T11:42:40.646Z,60.70
2019-02-10T11:45:11.782Z,61.00
2019-02-10T11:47:40.452Z,61.20
2019-02-10T11:50:11.370Z,60.90
2019-02-10T11:52:40.132Z,60.50
2019-02-10T11:55:10.017Z,60.60
2019-02-10T11:57:38.706Z,60.90
2019-02-10T12:00:13.091Z,60.80
2019-02-10T12:02:41.775Z,60.80
2019-02-10T12:05:11.404Z,60.90
2019-02-10T12:07:40.125Z,61.50
2019-02-10T12:10:11.264Z,60.60
2019-02-10T12:12:40.189Z,60.50
2019-02-10T12:15:16.583Z,60.60
2019-02-10T12:17:45.309Z,60.70
2019-02-10T12:20:17.429Z,60.30
2019-02-10T12:22:50.168Z,60.50
2019-02-10T12:25:16.559Z,60.20
2019-02-10T12:27:45.239Z,60.10
2019-02-10T12:30:17.768Z,60.00
2019-02-10T12:32:46.455Z,59.90
2019-02-10T12:35:15.191Z,59.60
2019-02-10T12:37:43.914Z,59.90
2019-02-10T12:40:12.846Z,59.50
2019-02-10T12:42:41.553Z,59.30
2019-02-10T12:45:14.337Z,59.50
2019-02-10T12:47:43.032Z,59.40
2019-02-10T12:50:13.339Z,59.40
2019-02-10T12:52:42.018Z,59.10
2019-02-10T12:55:12.336Z,59.30
2019-02-10T12:57:41.170Z,59.30
2019-02-10T13:00:20.236Z,59.20
2019-02-10T13:02:49.013Z,59.00
2019-02-10T13:05:17.777Z,58.90
2019-02-10T13:07:46.662Z,59.00
2019-02-10T13:10:18.228Z,58.80
2019-02-10T13:12:46.824Z,58.90
2019-02-10T13:15:17.529Z,58.70
2019-02-10T13:17:46.439Z,58.70
2019-02-10T13:20:15.130Z,58.80
2019-02-10T13:22:43.935Z,58.60
2019-02-10T13:25:14.912Z,58.50
2019-02-10T13:27:43.828Z,58.30
2019-02-10T13:30:19.111Z,58.60
2019-02-10T13:32:47.799Z,58.50
2019-02-10T13:35:16.555Z,58.50
2019-02-10T13:37:45.295Z,58.40
2019-02-10T13:40:17.211Z,58.30
2019-02-10T13:42:47.050Z,58.30
2019-02-10T13:45:15.739Z,58.30
2019-02-10T13:47:44.410Z,58.30
2019-02-10T13:50:17.650Z,57.90
2019-02-10T13:52:46.506Z,57.20
2019-02-10T13:55:17.372Z,57.70
2019-02-10T13:57:46.133Z,57.60
2019-02-10T14:00:23.792Z,57.50
2019-02-10T14:02:52.542Z,57.30
2019-02-10T14:05:21.272Z,57.30
2019-02-10T14:07:51.071Z,57.90
2019-02-10T14:10:25.852Z,58.00
2019-02-10T14:12:50.760Z,57.80
2019-02-10T14:15:20.288Z,57.30
2019-02-10T14:17:49.273Z,57.40
2019-02-10T14:20:21.123Z,57.30
2019-02-10T14:22:49.785Z,57.20
2019-02-10T14:25:18.534Z,57.50
2019-02-10T14:27:47.740Z,57.10
2019-02-10T14:30:21.269Z,57.20
2019-02-10T14:32:50.022Z,57.20
2019-02-10T14:35:20.966Z,57.20
2019-02-10T14:37:49.660Z,57.20
2019-02-10T14:40:18.374Z,57.40
2019-02-10T14:42:47.079Z,57.40
2019-02-10T14:45:16.403Z,57.20
2019-02-10T14:47:45.154Z,57.40
2019-02-10T14:50:18.785Z,57.30
2019-02-10T14:52:47.481Z,57.20
2019-02-10T14:55:16.239Z,57.20
2019-02-10T14:57:45.998Z,57.20
2019-02-10T15:00:17.888Z,57.10
2019-02-10T15:02:46.579Z,57.30
2019-02-10T15:05:15.376Z,57.30
2019-02-10T15:07:44.389Z,57.40
2019-02-10T15:10:18.161Z,57.30
2019-02-10T15:12:46.875Z,57.20
2019-02-10T15:15:15.622Z,57.10
2019-02-10T15:17:44.287Z,57.20
2019-02-10T15:20:13.556Z,56.90
2019-02-10T15:22:42.309Z,57.10
2019-02-10T15:25:12.269Z,57.00
2019-02-10T15:27:41.094Z,56.80
2019-02-10T15:30:12.711Z,56.80
2019-02-10T15:32:41.645Z,56.70
2019-02-10T15:35:10.524Z,56.80
2019-02-10T15:37:39.412Z,56.70
2019-02-10T15:40:10.083Z,56.90
2019-02-10T15:42:38.849Z,56.70
2019-02-10T15:45:12.359Z,56.50
2019-02-10T15:47:41.036Z,56.50
2019-02-10T15:50:14.770Z,56.50
2019-02-10T15:52:43.516Z,56.50
2019-02-10T15:55:13.284Z,56.80
2019-02-10T15:57:42.194Z,56.80
2019-02-10T16:00:22.748Z,56.70
2019-02-10T16:02:52.088Z,56.90
2019-02-10T16:05:20.755Z,56.80
2019-02-10T16:07:49.540Z,56.70
2019-02-10T16:10:18.283Z,56.80
2019-02-10T16:12:46.964Z,56.80
2019-02-10T16:15:15.674Z,56.90
2019-02-10T16:17:44.358Z,56.90
2019-02-10T16:20:16.781Z,56.60
2019-02-10T16:22:45.483Z,56.90
2019-02-10T16:25:14.247Z,56.80
2019-02-10T16:27:42.927Z,56.90
2019-02-10T16:30:14.576Z,56.60
2019-02-10T16:32:49.631Z,56.70
2019-02-10T16:35:13.753Z,56.70
2019-02-10T16:37:42.431Z,56.70
2019-02-10T16:40:22.108Z,56.80
2019-02-10T16:42:50.803Z,56.70
2019-02-10T16:45:19.528Z,56.50
2019-02-10T16:47:48.325Z,56.50
2019-02-10T16:50:17.934Z,56.20
2019-02-10T16:52:46.722Z,56.40
2019-02-10T16:55:18.118Z,56.10
2019-02-10T16:57:46.804Z,56.20
2019-02-10T17:00:16.440Z,56.20
2019-02-10T17:02:45.153Z,56.40
2019-02-10T17:05:13.907Z,56.20
2019-02-10T17:07:42.627Z,56.10
2019-02-10T17:10:16.040Z,56.20
2019-02-10T17:12:44.750Z,56.20
2019-02-10T17:15:13.632Z,56.20
2019-02-10T17:17:42.360Z,56.10
2019-02-10T17:20:12.455Z,56.40
2019-02-10T17:22:41.452Z,56.00
2019-02-10T17:25:13.174Z,55.90
2019-02-10T17:27:41.871Z,56.20
2019-02-10T17:30:12.992Z,56.00
2019-02-10T17:32:41.723Z,56.20
2019-02-10T17:35:12.273Z,56.20
2019-02-10T17:37:41.000Z,55.90
2019-02-10T17:40:40.044Z,56.60
2019-02-10T17:43:08.791Z,55.90
2019-02-10T17:45:37.548Z,56.80
2019-02-10T17:48:06.335Z,55.90
2019-02-10T17:50:35.041Z,57.00
2019-02-10T17:53:03.826Z,56.60
2019-02-10T17:55:32.552Z,57.20
2019-02-10T17:58:01.231Z,57.40
2019-02-10T18:00:34.052Z,57.70
2019-02-10T18:03:02.792Z,57.70
2019-02-10T18:05:31.688Z,58.00
2019-02-10T18:08:00.391Z,57.50
2019-02-10T18:10:29.102Z,58.10
2019-02-10T18:12:57.831Z,57.90
2019-02-10T18:15:44.064Z,57.80
2019-02-10T18:18:26.361Z,58.00
2019-02-10T18:21:14.547Z,57.90
2019-02-10T18:24:00.994Z,58.00
2019-02-10T18:26:47.463Z,57.60
2019-02-10T18:29:23.626Z,58.10
2019-02-10T18:31:53.893Z,58.00
2019-02-10T18:34:30.087Z,58.40
2019-02-10T18:37:09.184Z,58.00
2019-02-10T18:39:55.574Z,58.50
2019-02-10T18:42:28.692Z,57.80
2019-02-10T18:44:58.984Z,58.00
2019-02-10T18:47:38.262Z,58.70
2019-02-10T18:50:10.676Z,58.40
2019-02-10T18:52:40.979Z,58.50
2019-02-10T18:55:14.028Z,58.10
2019-02-10T18:57:56.286Z,58.50
2019-02-10T19:00:26.748Z,58.60
2019-02-10T19:03:06.099Z,58.60
2019-02-10T19:05:42.382Z,58.90
2019-02-10T19:08:12.706Z,58.20
2019-02-10T19:10:45.841Z,58.30
2019-02-10T19:13:32.436Z,58.60
2019-02-10T19:16:05.577Z,58.20
2019-02-10T19:18:38.780Z,58.90
2019-02-10T19:21:09.103Z,59.10
2019-02-10T19:23:39.481Z,59.00
2019-02-10T19:26:09.798Z,59.00
2019-02-10T19:28:40.070Z,58.90
2019-02-10T19:31:13.019Z,58.60
2019-02-10T19:34:01.171Z,58.70
2019-02-10T19:36:31.470Z,58.60
2019-02-10T19:39:10.907Z,58.90
2019-02-10T19:41:43.884Z,58.50
2019-02-10T19:44:14.141Z,58.00
2019-02-10T19:47:00.822Z,58.20
2019-02-10T19:49:31.087Z,57.70
2019-02-10T19:52:03.940Z,57.70
2019-02-10T19:54:34.244Z,57.90
2019-02-10T19:57:13.581Z,57.80
2019-02-10T19:59:52.450Z,57.80
2019-02-10T20:02:25.431Z,57.70
2019-02-10T20:04:55.675Z,57.70
2019-02-10T20:07:28.493Z,57.60
2019-02-10T20:09:58.802Z,57.80
2019-02-10T20:12:29.084Z,57.80
2019-02-10T20:15:05.216Z,58.00
2019-02-10T20:17:35.490Z,58.10
2019-02-10T20:20:07.892Z,58.00
2019-02-10T20:22:44.128Z,58.40
2019-02-10T20:25:14.556Z,57.80
2019-02-10T20:27:47.479Z,57.80
2019-02-10T20:30:20.372Z,57.70
2019-02-10T20:32:56.421Z,57.80
2019-02-10T20:35:26.726Z,57.70
2019-02-10T20:37:59.542Z,57.60
2019-02-10T20:40:29.831Z,57.40
2019-02-10T20:43:09.031Z,57.50
2019-02-10T20:45:39.357Z,57.40
2019-02-10T20:48:18.340Z,57.20
2019-02-10T20:50:48.579Z,57.00
2019-02-10T20:53:30.748Z,57.00
2019-02-10T20:56:13.047Z,57.10
2019-02-10T20:58:45.864Z,57.20
2019-02-10T21:01:25.077Z,56.90
2019-02-10T21:03:58.147Z,57.40
2019-02-10T21:06:46.579Z,57.10
2019-02-10T21:09:19.509Z,56.90
2019-02-10T21:11:49.807Z,57.10
2019-02-10T21:14:25.979Z,57.50
2019-02-10T21:17:12.185Z,57.00
2019-02-10T21:19:42.451Z,57.10
2019-02-10T21:22:15.770Z,57.20
2019-02-10T21:24:55.076Z,57.00
2019-02-10T21:27:31.156Z,57.20
2019-02-10T21:30:07.460Z,57.30
2019-02-10T21:32:44.265Z,57.20
2019-02-10T21:35:14.547Z,57.20
2019-02-10T21:37:59.595Z,57.20
2019-02-10T21:40:44.932Z,56.70
2019-02-10T21:43:15.205Z,56.80
2019-02-10T21:45:48.379Z,57.20
2019-02-10T21:48:18.619Z,57.10
2019-02-10T21:50:47.299Z,57.10
2019-02-10T21:53:16.138Z,57.50
2019-02-10T21:55:44.836Z,57.60
2019-02-10T21:58:13.644Z,57.40
2019-02-10T22:00:42.322Z,57.50
2019-02-10T22:03:11.042Z,57.40
2019-02-10T22:05:39.736Z,57.60
2019-02-10T22:08:08.432Z,57.30
2019-02-10T22:10:37.168Z,57.50
2019-02-10T22:13:05.839Z,57.60
2019-02-10T22:15:34.618Z,57.50
2019-02-10T22:18:03.319Z,57.50
2019-02-10T22:20:32.133Z,57.70
2019-02-10T22:23:00.953Z,57.80
2019-02-10T22:25:29.671Z,57.60
2019-02-10T22:27:58.415Z,57.60
2019-02-10T22:30:27.101Z,58.30
2019-02-10T22:32:55.771Z,58.00
2019-02-10T22:35:24.593Z,57.90
2019-02-10T22:37:53.264Z,58.00
2019-02-10T22:40:21.991Z,57.70
2019-02-10T22:42:50.663Z,57.30
2019-02-10T22:45:19.393Z,57.60
2019-02-10T22:47:48.097Z,57.00
2019-02-10T22:50:16.918Z,57.00
2019-02-10T22:52:45.676Z,56.90
2019-02-10T22:55:14.390Z,57.10
2019-02-10T22:57:43.101Z,56.80
2019-02-10T23:00:28.483Z,56.90
2019-02-10T23:02:57.267Z,56.70
2019-02-10T23:05:26.152Z,56.80
2019-02-10T23:07:54.821Z,56.70
2019-02-10T23:10:23.567Z,57.00
2019-02-10T23:12:53.767Z,56.70
2019-02-10T23:15:22.776Z,56.80
2019-02-10T23:17:51.468Z,56.90
2019-02-10T23:20:20.119Z,57.00
2019-02-10T23:22:48.833Z,57.20
2019-02-10T23:25:17.530Z,57.20
2019-02-10T23:27:46.356Z,57.50
2019-02-10T23:30:15.023Z,57.20
2019-02-10T23:32:43.727Z,57.60
2019-02-10T23:35:12.426Z,57.30
2019-02-10T23:37:41.108Z,57.50
2019-02-10T23:40:09.802Z,57.60
2019-02-10T23:42:38.491Z,57.40
2019-02-10T23:45:08.195Z,57.30
2019-02-10T23:47:36.915Z,57.10
2019-02-10T23:50:07.459Z,57.20
2019-02-10T23:52:36.185Z,57.10
2019-02-10T23:55:05.630Z,57.30
2019-02-10T23:57:34.341Z,57.30
